DAL4662 KJFK-KBNA
Flight info
| Callsign | DAL4662 |
|---|---|
| Flight time | N/A |
| Altitude | 32000 |
| Route | RBV Q430 SAAME J6 HVQ Q68 YOCKY GROAT PASLY5 |
| Aircraft | A321/M-SDE3FGHIRWY/LB1 |
Departure
| Time | 2026-05-05 13:05 |
|---|---|
| Airport | John F. Kennedy International Airport (KJFK) |
Arrival
| Time | N/A |
|---|---|
| Airport | Nashville International Airport (KBNA) |
| Time | Latitude | Longitude | Altitude | Speed | Heading |
|---|---|---|---|---|---|
| 2026-05-05 12:52 | 40.64345 | -73.77794 | 23 ft | 0 kts | 260° |
| 2026-05-05 12:53 | 40.64346 | -73.77786 | 23 ft | 4 kts | 260° |
| 2026-05-05 12:53 | 40.64351 | -73.77751 | 23 ft | 4 kts | 260° |
| 2026-05-05 12:53 | 40.64355 | -73.77721 | 23 ft | 2 kts | 259° |
| 2026-05-05 12:53 | 40.64355 | -73.77690 | 23 ft | 4 kts | 301° |
| 2026-05-05 12:54 | 40.64315 | -73.77652 | 23 ft | 4 kts | 331° |
| 2026-05-05 12:54 | 40.64291 | -73.77635 | 26 ft | 4 kts | 331° |
| 2026-05-05 12:54 | 40.64268 | -73.77617 | 24 ft | 4 kts | 330° |
| 2026-05-05 12:55 | 40.64244 | -73.77600 | 26 ft | 4 kts | 330° |
| 2026-05-05 12:55 | 40.64220 | -73.77583 | 25 ft | 4 kts | 330° |
| 2026-05-05 12:55 | 40.64197 | -73.77565 | 26 ft | 4 kts | 330° |
| 2026-05-05 12:55 | 40.64173 | -73.77548 | 25 ft | 4 kts | 330° |
| 2026-05-05 12:56 | 40.64150 | -73.77531 | 26 ft | 4 kts | 330° |
| 2026-05-05 12:56 | 40.64132 | -73.77517 | 25 ft | 4 kts | 335° |
| 2026-05-05 12:56 | 40.64104 | -73.77507 | 25 ft | 4 kts | 2° |
| 2026-05-05 12:56 | 40.64077 | -73.77514 | 24 ft | 4 kts | 27° |
| 2026-05-05 12:57 | 40.64056 | -73.77530 | 25 ft | 4 kts | 31° |
| 2026-05-05 12:57 | 40.64048 | -73.77536 | 23 ft | 0 kts | 31° |
| 2026-05-05 12:59 | 40.64056 | -73.77530 | 23 ft | 4 kts | 31° |
| 2026-05-05 12:59 | 40.64089 | -73.77503 | 25 ft | 5 kts | 36° |
| 2026-05-05 12:59 | 40.64091 | -73.77470 | 23 ft | 3 kts | 115° |
| 2026-05-05 13:00 | 40.64065 | -73.77414 | 24 ft | 4 kts | 105° |
| 2026-05-05 13:00 | 40.64070 | -73.77391 | 24 ft | 2 kts | 62° |
| 2026-05-05 13:01 | 40.64200 | -73.77285 | 27 ft | 16 kts | 30° |
| 2026-05-05 13:01 | 40.64312 | -73.77198 | 23 ft | 20 kts | 31° |
| 2026-05-05 13:01 | 40.64388 | -73.77139 | 23 ft | 15 kts | 31° |
| 2026-05-05 13:01 | 40.64429 | -73.77026 | 21 ft | 8 kts | 75° |
| 2026-05-05 13:02 | 40.64476 | -73.76991 | 19 ft | 9 kts | 8° |
| 2026-05-05 13:02 | 40.64532 | -73.76970 | 19 ft | 8 kts | 29° |
| 2026-05-05 13:02 | 40.64577 | -73.76935 | 19 ft | 6 kts | 31° |
| 2026-05-05 13:02 | 40.64610 | -73.76908 | 18 ft | 7 kts | 30° |
| 2026-05-05 13:03 | 40.64649 | -73.76878 | 18 ft | 6 kts | 31° |
| 2026-05-05 13:03 | 40.64686 | -73.76849 | 19 ft | 7 kts | 31° |
| 2026-05-05 13:03 | 40.64740 | -73.76807 | 18 ft | 11 kts | 31° |
| 2026-05-05 13:03 | 40.64808 | -73.76754 | 20 ft | 12 kts | 30° |
| 2026-05-05 13:04 | 40.64842 | -73.76678 | 22 ft | 11 kts | 115° |
| 2026-05-05 13:04 | 40.64792 | -73.76572 | 22 ft | 16 kts | 129° |
| 2026-05-05 13:04 | 40.64720 | -73.76586 | 22 ft | 12 kts | 212° |
| 2026-05-05 13:04 | 40.64508 | -73.76755 | 20 ft | 69 kts | 211° |
| 2026-05-05 13:05 | 40.63913 | -73.77222 | 22 ft | 126 kts | 211° |
| 2026-05-05 13:05 | 40.63028 | -73.77913 | 50 ft | 165 kts | 209° |
| 2026-05-05 13:05 | 40.62029 | -73.78688 | 659 ft | 162 kts | 211° |
| 2026-05-05 13:05 | 40.61084 | -73.79409 | 1376 ft | 155 kts | 216° |
| 2026-05-05 13:06 | 40.60187 | -73.80125 | 1996 ft | 152 kts | 219° |
| 2026-05-05 13:06 | 40.59270 | -73.80886 | 2463 ft | 159 kts | 219° |
| 2026-05-05 13:06 | 40.58323 | -73.81694 | 2903 ft | 168 kts | 220° |
| 2026-05-05 13:06 | 40.57476 | -73.82852 | 3062 ft | 185 kts | 235° |
| 2026-05-05 13:07 | 40.56671 | -73.84299 | 3195 ft | 208 kts | 237° |
| 2026-05-05 13:07 | 40.55793 | -73.85946 | 3465 ft | 233 kts | 237° |